Time;durP1;ratioP1;P1;durP2;ratioP2;P2;SDS_P1;SDS_P2;PMS_P1;PMS_P2;Temp;Humidity;BMP_temperature;BMP_pressure;BME280_temperature;BME280_humidity;BME280_pressure;Samples;Min_cycle;Max_cycle;Signal;HPM_P1;HPM_P2
2023/04/02 00:02:21;;;;;;;;;7.75;5.75;;;;;8.40;100.00;97352.56;4967761;28;102156;-70
2023/04/02 00:05:20;;;;;;;;;4.00;3.00;;;;;8.40;100.00;97355.25;4953068;28;102180;-69
2023/04/02 00:08:27;;;;;;;;;5.00;4.50;;;;;8.36;100.00;97360.25;4956018;28;102119;-70
2023/04/02 00:11:14;;;;;;;;;11.75;9.00;;;;;8.34;100.00;97365.00;4935260;28;107412;-70
2023/04/02 00:13:59;;;;;;;;;10.00;9.00;;;;;8.34;100.00;97358.78;4957552;28;102744;-70
2023/04/02 00:16:47;;;;;;;;;11.25;8.50;;;;;8.35;100.00;97357.75;4959915;28;102575;-70
2023/04/02 00:19:55;;;;;;;;;12.50;11.50;;;;;8.34;100.00;97364.19;4951253;28;102371;-70
2023/04/02 00:22:31;;;;;;;;;9.00;8.50;;;;;8.33;100.00;97354.47;4963413;28;108313;-70
2023/04/02 00:25:06;;;;;;;;;8.50;7.00;;;;;8.32;100.00;97364.41;4969625;28;102607;-70
2023/04/02 00:27:35;;;;;;;;;4.00;4.00;;;;;8.32;100.00;97364.41;4966936;28;102750;-70
2023/04/02 00:30:03;;;;;;;;;11.75;9.75;;;;;8.26;100.00;97365.25;4970882;28;102399;-70
2023/04/02 00:32:32;;;;;;;;;20.00;15.25;;;;;8.21;100.00;97367.75;4951909;28;103731;-70
2023/04/02 00:35:00;;;;;;;;;16.50;14.75;;;;;8.21;100.00;97366.94;4955127;28;102295;-70
2023/04/02 00:37:37;;;;;;;;;27.75;20.75;;;;;8.15;100.00;97374.00;4947008;28;102524;-70
2023/04/02 00:40:18;;;;;;;;;29.75;20.50;;;;;8.04;100.00;97351.28;4950954;28;102595;-70
2023/04/02 00:42:47;;;;;;;;;28.50;22.75;;;;;8.14;100.00;97371.53;4945279;28;109290;-70
2023/04/02 00:45:20;;;;;;;;;20.75;18.75;;;;;8.12;100.00;97370.91;4955087;28;102181;-70
2023/04/02 00:47:48;;;;;;;;;18.00;16.50;;;;;8.11;100.00;97367.38;4953388;28;102208;-70
2023/04/02 00:50:33;;;;;;;;;22.75;18.00;;;;;8.11;100.00;97371.94;4948371;28;102645;-70
2023/04/02 00:53:09;;;;;;;;;16.25;11.00;;;;;8.07;100.00;97372.38;4965457;28;104130;-71
2023/04/02 00:55:40;;;;;;;;;23.75;20.50;;;;;8.05;100.00;97376.34;4958331;28;102009;-70
2023/04/02 00:58:35;;;;;;;;;24.25;21.00;;;;;8.01;100.00;97377.81;4952324;28;102053;-70
2023/04/02 01:01:03;;;;;;;;;25.75;23.00;;;;;8.07;100.00;97375.09;4951140;28;102505;-70
2023/04/02 01:03:34;;;;;;;;;16.75;13.00;;;;;8.03;100.00;97371.16;4945291;28;104139;-70
2023/04/02 01:06:22;;;;;;;;;18.00;17.25;;;;;8.07;100.00;97380.47;4945596;28;103030;-70
2023/04/02 01:09:12;;;;;;;;;17.25;13.75;;;;;8.06;100.00;97384.19;4949591;28;103100;-70
2023/04/02 01:12:16;;;;;;;;;18.50;11.00;;;;;7.95;100.00;97379.50;4953613;28;102449;-70
2023/04/02 01:15:18;;;;;;;;;14.50;11.50;;;;;8.07;100.00;97391.22;4955797;28;107686;-70
2023/04/02 01:18:30;;;;;;;;;14.75;13.25;;;;;8.03;100.00;97387.31;4969183;28;102469;-70
2023/04/02 01:21:43;;;;;;;;;20.50;14.75;;;;;7.97;100.00;97380.09;4963755;28;102287;-70
2023/04/02 01:24:19;;;;;;;;;17.00;15.50;;;;;7.97;100.00;97387.38;4963413;28;102457;-70
2023/04/02 01:26:56;;;;;;;;;15.25;14.00;;;;;7.99;100.00;97391.47;4968547;28;103546;-70
2023/04/02 01:29:44;;;;;;;;;20.25;13.75;;;;;7.95;100.00;97387.56;4962245;28;104203;-70
2023/04/02 01:32:15;;;;;;;;;17.75;14.75;;;;;7.97;100.00;97390.06;4937834;28;102812;-70
2023/04/02 01:34:46;;;;;;;;;20.25;18.25;;;;;8.03;100.00;97392.72;4959237;28;102153;-70
2023/04/02 01:37:26;;;;;;;;;13.25;11.50;;;;;8.02;100.00;97385.66;4954869;28;104221;-70
2023/04/02 01:40:16;;;;;;;;;14.25;12.25;;;;;8.01;100.00;97394.78;4949671;28;102149;-70
2023/04/02 01:43:20;;;;;;;;;15.50;12.25;;;;;8.04;100.00;97388.97;4954640;28;101841;-71
2023/04/02 01:45:47;;;;;;;;;15.25;12.50;;;;;7.89;100.00;97366.06;4955575;28;102416;-70
2023/04/02 01:48:23;;;;;;;;;10.00;8.75;;;;;8.07;100.00;97390.41;4967446;28;103967;-70
2023/04/02 01:50:54;;;;;;;;;11.00;9.25;;;;;8.00;100.00;97385.06;4974224;28;102538;-70
2023/04/02 01:53:25;;;;;;;;;13.75;10.50;;;;;8.02;100.00;97400.97;4937389;28;103526;-70
2023/04/02 01:55:55;;;;;;;;;10.75;8.50;;;;;7.82;100.00;97354.50;4955007;28;104387;-70
2023/04/02 01:58:26;;;;;;;;;10.00;8.00;;;;;8.02;100.00;97396.44;4958821;28;104021;-70
2023/04/02 02:01:02;;;;;;;;;12.25;8.50;;;;;7.99;100.00;97388.78;4969419;28;101996;-70
2023/04/02 02:03:30;;;;;;;;;14.50;10.50;;;;;7.99;100.00;97407.63;4954765;28;102377;-70
2023/04/02 02:05:58;;;;;;;;;13.75;9.50;;;;;7.90;100.00;97398.16;4965867;28;103309;-70
2023/04/02 02:08:36;;;;;;;;;15.00;13.25;;;;;7.82;100.00;97400.25;4970218;28;104003;-70
2023/04/02 02:11:03;;;;;;;;;20.25;15.75;;;;;7.80;100.00;97411.22;4971794;28;102708;-69
2023/04/02 02:13:31;;;;;;;;;19.75;16.50;;;;;7.77;100.00;97408.97;4967920;28;103585;-70
2023/04/02 02:15:59;;;;;;;;;20.75;14.75;;;;;7.78;100.00;97412.50;4973045;28;102080;-71
2023/04/02 02:18:28;;;;;;;;;25.00;18.25;;;;;7.71;100.00;97408.97;4969919;28;104067;-69
2023/04/02 02:20:58;;;;;;;;;20.75;14.75;;;;;7.62;100.00;97395.75;4969500;28;102714;-70
2023/04/02 02:23:29;;;;;;;;;19.75;13.25;;;;;7.71;100.00;97415.19;4965835;28;102571;-69
2023/04/02 02:25:56;;;;;;;;;16.50;15.00;;;;;7.67;100.00;97397.81;4963303;28;102412;-70
2023/04/02 02:28:30;;;;;;;;;11.00;9.50;;;;;7.79;100.00;97411.47;4957259;28;104085;-70
2023/04/02 02:31:21;;;;;;;;;12.50;8.00;;;;;7.81;100.00;97418.25;4968228;28;103591;-70
2023/04/02 02:33:52;;;;;;;;;11.50;9.50;;;;;7.74;100.00;97417.47;4953744;28;102237;-70
2023/04/02 02:36:32;;;;;;;;;12.75;10.00;;;;;7.74;100.00;97422.84;4953635;28;102451;-70
2023/04/02 02:39:38;;;;;;;;;7.75;7.75;;;;;7.79;100.00;97427.59;4950001;28;104059;-70
2023/04/02 02:42:30;;;;;;;;;8.00;6.00;;;;;7.78;100.00;97431.31;4948779;28;102330;-70
2023/04/02 02:45:00;;;;;;;;;9.00;8.00;;;;;7.78;100.00;97426.78;4956057;28;102347;-70
2023/04/02 02:47:31;;;;;;;;;9.50;7.50;;;;;7.74;100.00;97436.31;4960892;28;102173;-70
2023/04/02 02:50:02;;;;;;;;;11.50;7.00;;;;;7.74;100.00;97436.31;4950178;28;103162;-70
2023/04/02 02:52:37;;;;;;;;;10.00;8.75;;;;;7.72;100.00;97438.38;4954621;28;101895;-70
2023/04/02 02:55:12;;;;;;;;;8.50;7.50;;;;;7.75;100.00;97443.31;4954483;28;101906;-70
2023/04/02 02:57:52;;;;;;;;;9.50;7.00;;;;;7.78;100.00;97447.47;4971017;28;102296;-70
2023/04/02 03:00:23;;;;;;;;;14.50;10.00;;;;;7.69;100.00;97443.34;4967346;28;108781;-70
2023/04/02 03:02:53;;;;;;;;;16.75;13.25;;;;;7.60;100.00;97446.28;4967061;28;101878;-70
2023/04/02 03:05:25;;;;;;;;;14.50;13.50;;;;;7.59;100.00;97447.31;4966667;28;103748;-70
2023/04/02 03:07:55;;;;;;;;;14.75;13.25;;;;;7.61;100.00;97439.00;4974295;28;102020;-70
2023/04/02 03:10:46;;;;;;;;;16.75;13.00;;;;;7.55;100.00;97426.41;4966473;28;103682;-70
2023/04/02 03:13:34;;;;;;;;;13.75;12.50;;;;;7.56;100.00;97433.47;4962863;28;103431;-70
2023/04/02 03:16:27;;;;;;;;;10.25;9.00;;;;;7.55;100.00;97438.00;4970501;28;102310;-70
2023/04/02 03:19:01;;;;;;;;;9.00;8.50;;;;;7.60;100.00;97451.66;4961721;28;102900;-69
2023/04/02 03:21:44;;;;;;;;;9.50;8.00;;;;;7.63;100.00;97453.09;4947906;28;104023;-70
2023/04/02 03:24:16;;;;;;;;;4.00;4.00;;;;;7.63;100.00;97450.41;4962427;28;102496;-70
2023/04/02 03:27:22;;;;;;;;;7.00;6.00;;;;;7.63;100.00;97462.00;4955995;28;103729;-69
2023/04/02 03:30:08;;;;;;;;;5.00;4.00;;;;;7.59;100.00;97459.94;4971817;28;102417;-70
2023/04/02 03:32:39;;;;;;;;;8.25;7.00;;;;;7.57;100.00;97462.00;4966485;28;104134;-70
2023/04/02 03:35:17;;;;;;;;;11.00;8.50;;;;;7.56;100.00;97457.66;4968261;28;102650;-70
2023/04/02 03:37:55;;;;;;;;;7.25;6.00;;;;;7.59;100.00;97462.63;4953376;28;102250;-70
2023/04/02 03:40:30;;;;;;;;;7.75;4.00;;;;;7.58;100.00;97460.94;4954365;28;104094;-70
2023/04/02 03:43:01;;;;;;;;;5.00;4.50;;;;;7.62;100.00;97470.25;4952931;28;104165;-70
2023/04/02 03:45:37;;;;;;;;;9.75;8.00;;;;;7.56;100.00;97471.91;4969120;28;102240;-70
2023/04/02 03:48:11;;;;;;;;;12.25;7.25;;;;;7.59;100.00;97476.91;4970249;28;101993;-70
2023/04/02 03:51:02;;;;;;;;;4.00;4.00;;;;;7.65;100.00;97474.41;4967050;28;102413;-70
2023/04/02 03:53:31;;;;;;;;;8.25;5.75;;;;;7.64;100.00;97473.56;4969079;28;108621;-70
2023/04/02 03:56:00;;;;;;;;;4.00;3.75;;;;;7.64;100.00;97478.97;4968760;28;103368;-70
2023/04/02 03:58:38;;;;;;;;;7.25;6.00;;;;;7.56;100.00;97487.25;4965646;28;102136;-71
2023/04/02 04:01:19;;;;;;;;;7.25;6.50;;;;;7.57;100.00;97486.19;4958715;28;102146;-69
2023/04/02 04:03:50;;;;;;;;;5.50;4.00;;;;;7.56;100.00;97498.00;4963793;28;108591;-71
2023/04/02 04:06:23;;;;;;;;;5.75;4.25;;;;;7.58;100.00;97495.94;4970669;28;102405;-71
2023/04/02 04:08:55;;;;;;;;;8.25;4.75;;;;;7.53;100.00;97495.72;4970176;28;102267;-69
2023/04/02 04:11:29;;;;;;;;;8.50;6.00;;;;;7.56;100.00;97493.44;4971226;28;104119;-71
2023/04/02 04:14:27;;;;;;;;;3.00;2.00;;;;;7.59;100.00;97495.72;4966628;28;103994;-71
2023/04/02 04:16:54;;;;;;;;;6.50;5.50;;;;;7.58;100.00;97498.63;4964637;28;101961;-71
2023/04/02 04:19:36;;;;;;;;;2.00;2.00;;;;;7.53;100.00;97493.84;4958430;28;102150;-71
2023/04/02 04:22:13;;;;;;;;;4.50;3.50;;;;;7.66;100.00;97501.06;4967065;28;102247;-69
2023/04/02 04:24:44;;;;;;;;;5.75;3.50;;;;;7.66;100.00;97511.00;4955328;28;108547;-70
2023/04/02 04:27:19;;;;;;;;;6.50;4.00;;;;;7.64;100.00;97513.94;4961295;28;102552;-70
2023/04/02 04:30:04;;;;;;;;;6.00;5.00;;;;;7.59;100.00;97516.41;4967477;28;104042;-70
2023/04/02 04:32:49;;;;;;;;;4.00;3.00;;;;;7.61;100.00;97515.16;4946163;28;102538;-70
2023/04/02 04:35:38;;;;;;;;;4.00;3.00;;;;;7.66;100.00;97517.22;4947884;28;108840;-71
2023/04/02 04:38:10;;;;;;;;;4.75;4.00;;;;;7.66;100.00;97517.22;4965549;28;102310;-70
2023/04/02 04:40:51;;;;;;;;;5.00;3.25;;;;;7.65;100.00;97525.53;4947405;28;104114;-70
2023/04/02 04:43:41;;;;;;;;;6.50;5.00;;;;;7.64;100.00;97527.38;4955002;28;103771;-70
2023/04/02 04:46:26;;;;;;;;;5.00;4.00;;;;;7.67;100.00;97526.94;4951897;28;108713;-71
2023/04/02 04:49:17;;;;;;;;;5.00;3.50;;;;;7.68;100.00;97528.63;4931898;28;102611;-71
2023/04/02 04:51:51;;;;;;;;;7.00;6.50;;;;;7.71;100.00;97532.75;4920958;28;102478;-69
2023/04/02 04:54:19;;;;;;;;;2.00;2.00;;;;;7.70;100.00;97528.41;4961802;28;106750;-69
2023/04/02 04:56:50;;;;;;;;;4.00;3.00;;;;;7.71;100.00;97532.75;4965208;28;103993;-69
2023/04/02 04:59:29;;;;;;;;;2.50;2.00;;;;;7.67;100.00;97529.66;4960557;28;102551;-70
2023/04/02 05:02:11;;;;;;;;;2.00;2.00;;;;;7.68;100.00;97534.00;4961423;28;102390;-70
2023/04/02 05:04:41;;;;;;;;;14.75;13.00;;;;;7.57;100.00;97537.31;4968984;28;102045;-69
2023/04/02 05:07:11;;;;;;;;;16.50;11.75;;;;;7.63;100.00;97545.38;4970582;28;108928;-70
2023/04/02 05:10:14;;;;;;;;;14.25;11.00;;;;;7.57;100.00;97543.50;4961362;28;103726;-69
2023/04/02 05:13:14;;;;;;;;;11.50;10.00;;;;;7.60;100.00;97544.97;4963661;28;102000;-70
2023/04/02 05:16:26;;;;;;;;;10.50;8.00;;;;;7.59;100.00;97540.63;4946443;28;102381;-70
2023/04/02 05:19:06;;;;;;;;;13.00;10.00;;;;;7.60;100.00;97553.03;4945272;28;108359;-70
2023/04/02 05:21:43;;;;;;;;;12.50;12.50;;;;;7.58;100.00;97553.25;4967813;28;102523;-71
2023/04/02 05:24:29;;;;;;;;;15.25;13.25;;;;;7.58;100.00;97557.78;4958600;28;102091;-70
2023/04/02 05:27:01;;;;;;;;;19.25;16.50;;;;;7.53;100.00;97552.19;4970216;28;103171;-71
2023/04/02 05:29:37;;;;;;;;;14.75;11.50;;;;;7.62;100.00;97564.41;4968512;28;104253;-71
2023/04/02 05:32:28;;;;;;;;;14.75;11.75;;;;;7.58;100.00;97568.56;4964339;28;102065;-71
2023/04/02 05:34:56;;;;;;;;;13.00;11.25;;;;;7.56;100.00;97568.75;4947758;28;102287;-71
2023/04/02 05:37:28;;;;;;;;;15.75;15.00;;;;;7.43;100.00;97571.44;4953433;28;102449;-71
2023/04/02 05:39:59;;;;;;;;;19.75;18.00;;;;;7.39;100.00;97567.50;4949207;28;104088;-70
2023/04/02 05:42:30;;;;;;;;;32.50;29.75;;;;;7.24;100.00;97579.50;4948563;28;102202;-70
2023/04/02 05:45:28;;;;;;;;;24.75;21.00;;;;;7.20;100.00;97579.09;4955759;28;102649;-70
2023/04/02 05:48:00;;;;;;;;;22.75;21.25;;;;;7.01;100.00;97579.88;4957439;28;102284;-70
2023/04/02 05:50:35;;;;;;;;;23.00;18.25;;;;;6.86;100.00;97590.78;4954903;28;105937;-70
2023/04/02 05:53:09;;;;;;;;;20.00;17.50;;;;;6.72;100.00;97584.53;4969318;28;102333;-70
2023/04/02 05:56:02;;;;;;;;;20.00;15.00;;;;;6.63;100.00;97599.19;4961632;28;102522;-70
2023/04/02 05:58:47;;;;;;;;;17.75;13.25;;;;;6.56;100.00;97592.13;4956560;28;102486;-70
2023/04/02 06:01:24;;;;;;;;;13.00;11.75;;;;;6.45;100.00;97598.06;4962651;28;108573;-71
2023/04/02 06:04:18;;;;;;;;;13.50;12.00;;;;;6.20;100.00;97587.84;4969732;28;102226;-70
2023/04/02 06:06:52;;;;;;;;;10.00;10.00;;;;;6.17;100.00;97609.69;4946753;28;102008;-70
2023/04/02 06:09:47;;;;;;;;;8.50;7.00;;;;;5.95;100.00;97620.69;4954667;28;102817;-70
2023/04/02 06:12:35;;;;;;;;;5.00;3.25;;;;;5.76;100.00;97616.81;4950702;28;108674;-71
2023/04/02 06:15:05;;;;;;;;;8.00;5.25;;;;;5.73;100.00;97627.94;4956151;28;102668;-70
2023/04/02 06:17:45;;;;;;;;;7.00;6.00;;;;;5.62;100.00;97631.97;4961402;28;102122;-70
2023/04/02 06:20:16;;;;;;;;;8.75;6.00;;;;;5.49;100.00;97631.88;4958574;28;102279;-68
2023/04/02 06:22:48;;;;;;;;;3.00;3.00;;;;;5.42;100.00;97638.16;4944535;28;108702;-69
2023/04/02 06:25:25;;;;;;;;;7.00;5.50;;;;;5.32;100.00;97647.34;4957921;28;102104;-70
2023/04/02 06:27:55;;;;;;;;;4.00;3.00;;;;;5.22;100.00;97652.19;4952612;28;102438;-70
2023/04/02 06:30:31;;;;;;;;;7.00;6.25;;;;;5.08;100.00;97639.72;4956656;28;102478;-70
2023/04/02 06:32:58;;;;;;;;;3.50;2.75;;;;;4.95;100.00;97679.75;4959214;28;104501;-71
2023/04/02 06:35:26;;;;;;;;;4.50;3.25;;;;;4.89;100.00;97683.16;4966131;28;102346;-69
2023/04/02 06:37:58;;;;;;;;;6.25;3.50;;;;;4.79;100.00;97683.47;4970020;28;102359;-70
2023/04/02 06:41:02;;;;;;;;;3.25;2.25;;;;;4.71;100.00;97688.09;4968427;28;103182;-70
2023/04/02 06:43:55;;;;;;;;;2.50;2.00;;;;;4.63;100.00;97693.56;4952597;28;108669;-69
2023/04/02 06:46:42;;;;;;;;;2.00;2.00;;;;;4.50;100.00;97695.00;4948037;28;102010;-70
2023/04/02 06:49:18;;;;;;;;;6.00;3.00;;;;;4.46;100.00;97704.44;4944864;28;102412;-70
2023/04/02 06:51:49;;;;;;;;;2.25;1.25;;;;;4.29;100.00;97702.94;4967157;28;104318;-70
2023/04/02 06:54:17;;;;;;;;;2.75;2.75;;;;;4.34;100.00;97711.25;4955006;28;104030;-70
2023/04/02 06:56:47;;;;;;;;;2.25;2.00;;;;;4.36;100.00;97722.63;4952578;28;101982;-69
2023/04/02 06:59:15;;;;;;;;;4.75;3.00;;;;;4.31;100.00;97721.50;4950781;28;102533;-70
2023/04/02 07:01:53;;;;;;;;;3.00;3.00;;;;;4.32;100.00;97731.22;4963835;28;102284;-70
2023/04/02 07:04:21;;;;;;;;;5.50;5.25;;;;;4.36;100.00;97733.34;4955381;28;108447;-70
2023/04/02 07:06:50;;;;;;;;;3.00;3.00;;;;;4.44;100.00;97732.41;4958586;28;102074;-71
2023/04/02 07:09:17;;;;;;;;;5.00;3.00;;;;;4.42;100.00;97750.47;4965215;28;102266;-71
2023/04/02 07:11:45;;;;;;;;;4.75;4.00;;;;;4.40;100.00;97750.69;4962724;28;102420;-70
2023/04/02 07:14:12;;;;;;;;;6.25;5.50;;;;;4.39;100.00;97756.22;4951307;28;108711;-70
2023/04/02 07:16:41;;;;;;;;;4.25;2.50;;;;;4.32;100.00;97763.31;4968440;28;102473;-70
2023/04/02 07:19:18;;;;;;;;;2.00;2.00;;;;;4.25;100.00;97770.38;4968052;28;102188;-70
2023/04/02 07:21:46;;;;;;;;;3.00;3.00;;;;;4.15;100.00;97775.16;4952528;28;102184;-71
2023/04/02 07:24:13;;;;;;;;;2.00;2.00;;;;;3.83;100.00;97773.59;4953477;28;107934;-70
2023/04/02 07:26:40;;;;;;;;;2.25;1.00;;;;;3.73;100.00;97792.56;4969010;28;103777;-71
2023/04/02 07:29:13;;;;;;;;;2.00;2.00;;;;;3.65;100.00;97791.78;4967005;28;102220;-69
2023/04/02 07:31:41;;;;;;;;;2.00;1.00;;;;;3.65;100.00;97789.91;4971925;28;102373;-70
2023/04/02 07:34:09;;;;;;;;;2.00;1.75;;;;;3.46;100.00;97782.38;4937358;28;104018;-69
2023/04/02 07:36:36;;;;;;;;;2.75;2.75;;;;;3.48;100.00;97799.06;4960016;28;102166;-70
2023/04/02 07:39:03;;;;;;;;;3.00;2.00;;;;;3.35;100.00;97778.25;4970006;28;102705;-70
2023/04/02 07:41:31;;;;;;;;;3.00;2.50;;;;;3.41;100.00;97808.78;4953196;28;102376;-70
2023/04/02 07:43:57;;;;;;;;;2.00;2.00;;;;;3.46;100.00;97817.13;4950613;28;103686;-70
2023/04/02 07:46:25;;;;;;;;;3.00;2.00;;;;;3.43;100.00;97817.44;4953008;28;102896;-70
2023/04/02 07:48:52;;;;;;;;;5.75;3.00;;;;;3.52;100.00;97822.56;4949032;28;102390;-70
2023/04/02 07:51:22;;;;;;;;;5.50;5.00;;;;;3.39;100.00;97827.66;4964354;28;102064;-71
2023/04/02 07:53:54;;;;;;;;;5.00;5.00;;;;;3.48;100.00;97829.28;4971569;28;104042;-71
2023/04/02 07:56:23;;;;;;;;;6.75;6.00;;;;;3.53;100.00;97839.44;4968341;28;102497;-71
2023/04/02 07:58:51;;;;;;;;;8.75;7.00;;;;;3.46;100.00;97836.66;4967736;28;102253;-71
2023/04/02 08:01:24;;;;;;;;;9.75;7.25;;;;;3.41;100.00;97843.53;4966838;28;102056;-71
2023/04/02 08:03:53;;;;;;;;;9.00;6.75;;;;;3.43;100.00;97857.53;4966751;28;103157;-71
2023/04/02 08:06:21;;;;;;;;;8.75;6.50;;;;;3.43;100.00;97861.03;4965950;28;102511;-71
2023/04/02 08:08:49;;;;;;;;;6.00;6.00;;;;;3.46;100.00;97858.03;4960831;28;101964;-71
2023/04/02 08:11:16;;;;;;;;;9.25;9.00;;;;;3.47;100.00;97869.53;4970093;28;102395;-70
2023/04/02 08:13:43;;;;;;;;;5.50;5.00;;;;;3.43;100.00;97871.72;4965191;28;104005;-70
2023/04/02 08:16:10;;;;;;;;;3.50;3.00;;;;;3.40;100.00;97871.25;4950513;28;102331;-70
2023/04/02 08:18:37;;;;;;;;;2.75;2.50;;;;;3.34;100.00;97871.94;4946170;28;102403;-70
2023/04/02 08:21:07;;;;;;;;;5.50;3.00;;;;;3.48;100.00;97884.56;4960993;28;102409;-69
2023/04/02 08:23:35;;;;;;;;;5.50;5.00;;;;;3.45;100.00;97888.44;4967471;28;103997;-69
2023/04/02 08:26:04;;;;;;;;;7.75;6.00;;;;;3.40;100.00;97893.47;4968192;28;102431;-70
2023/04/02 08:28:34;;;;;;;;;3.00;3.00;;;;;3.40;100.00;97893.47;4969242;28;102002;-69
2023/04/02 08:31:03;;;;;;;;;3.00;3.00;;;;;3.46;100.00;97900.78;4965757;28;102431;-70
2023/04/02 08:33:30;;;;;;;;;2.00;1.50;;;;;3.47;100.00;97898.94;4965186;28;104443;-70
2023/04/02 08:35:58;;;;;;;;;4.00;3.50;;;;;3.47;100.00;97902.44;4945734;28;102383;-70
2023/04/02 08:38:26;;;;;;;;;6.00;4.50;;;;;3.40;100.00;97911.34;4950192;28;102189;-69
2023/04/02 08:40:58;;;;;;;;;2.00;2.00;;;;;3.28;100.00;97910.06;4943997;28;103590;-71
2023/04/02 08:43:52;;;;;;;;;2.00;2.00;;;;;3.27;100.00;97911.03;4954843;28;104242;-70
2023/04/02 08:46:37;;;;;;;;;3.00;3.00;;;;;3.09;100.00;97928.13;4947655;28;102458;-69
2023/04/02 08:49:25;;;;;;;;;3.00;2.25;;;;;3.07;100.00;97929.28;4939591;28;102322;-69
2023/04/02 08:51:52;;;;;;;;;1.25;1.00;;;;;3.02;100.00;97929.78;4952783;28;102079;-70
2023/04/02 08:54:23;;;;;;;;;2.00;2.00;;;;;3.04;100.00;97940.31;4949728;28;104012;-69
2023/04/02 08:57:00;;;;;;;;;2.00;1.75;;;;;2.93;100.00;97944.16;4953125;28;102465;-69
2023/04/02 08:59:37;;;;;;;;;2.00;2.00;;;;;3.05;100.00;97942.00;4938881;28;102354;-70
2023/04/02 09:02:28;;;;;;;;;2.00;1.00;;;;;3.01;100.00;97949.50;4947366;28;102293;-71
2023/04/02 09:05:00;;;;;;;;;2.00;1.00;;;;;3.13;100.00;97949.97;4949738;28;108772;-71
2023/04/02 09:07:31;;;;;;;;;3.00;3.00;;;;;3.11;100.00;97958.16;4948214;28;102507;-70
2023/04/02 09:09:59;;;;;;;;;1.75;1.75;;;;;3.08;100.00;97960.34;4940088;28;102345;-70
2023/04/02 09:12:29;;;;;;;;;2.00;2.00;;;;;3.01;100.00;97962.88;4935963;28;104451;-70
2023/04/02 09:15:23;;;;;;;;;7.00;4.50;;;;;2.90;100.00;97971.22;4951920;28;104093;-71
2023/04/02 09:17:59;;;;;;;;;6.25;4.00;;;;;2.72;100.00;97961.72;4950491;28;102318;-70
2023/04/02 09:20:28;;;;;;;;;5.75;5.00;;;;;2.82;100.00;97979.22;4946315;28;102266;-69
2023/04/02 09:22:56;;;;;;;;;3.00;3.00;;;;;2.81;100.00;97982.91;4959829;28;104699;-69
2023/04/02 09:25:31;;;;;;;;;8.25;6.50;;;;;2.85;100.00;97992.22;4961605;28;104038;-69
2023/04/02 09:28:03;;;;;;;;;9.25;6.00;;;;;2.91;100.00;97999.59;4961878;28;102495;-68
2023/04/02 09:30:30;;;;;;;;;9.50;7.50;;;;;2.89;100.00;97998.06;4950709;28;104193;-69
2023/04/02 09:33:06;;;;;;;;;7.25;6.00;;;;;2.97;100.00;98004.22;4957765;28;103359;-68
2023/04/02 09:35:36;;;;;;;;;9.00;5.75;;;;;2.98;100.00;98010.41;4952146;28;103631;-70
2023/04/02 09:38:06;;;;;;;;;10.00;9.00;;;;;2.99;100.00;98017.44;4947501;28;102011;-69
2023/04/02 09:40:53;;;;;;;;;10.75;7.00;;;;;3.11;100.00;98013.41;4956534;28;103121;-70
2023/04/02 09:43:24;;;;;;;;;10.25;9.25;;;;;3.04;100.00;98025.78;4951273;28;102578;-69
2023/04/02 09:46:02;;;;;;;;;9.50;9.25;;;;;3.16;100.00;98019.06;4957292;28;104280;-70
2023/04/02 09:48:38;;;;;;;;;12.50;10.75;;;;;3.22;100.00;98023.75;4949995;28;102468;-69
2023/04/02 09:51:06;;;;;;;;;16.75;12.00;;;;;3.31;100.00;98028.09;4951305;28;102716;-71
2023/04/02 09:53:34;;;;;;;;;10.00;7.00;;;;;3.25;100.00;98026.06;4967547;28;102204;-70
2023/04/02 09:56:11;;;;;;;;;9.75;9.75;;;;;3.34;100.00;98027.72;4962826;28;104019;-70
2023/04/02 09:58:39;;;;;;;;;10.50;10.25;;;;;3.32;100.00;98039.59;4969522;28;103480;-70
2023/04/02 10:01:32;;;;;;;;;10.75;10.00;;;;;3.38;100.00;98028.22;4968416;28;102341;-70
2023/04/02 10:04:02;;;;;;;;;14.50;11.50;;;;;3.47;100.00;98032.56;4967394;28;103437;-70
2023/04/02 10:06:31;;;;;;;;;10.00;9.00;;;;;3.48;100.00;98034.22;4969723;28;104079;-70
2023/04/02 10:09:19;;;;;;;;;14.25;8.75;;;;;3.43;100.00;98048.09;4941751;28;102474;-70
2023/04/02 10:11:49;;;;;;;;;12.00;11.75;;;;;3.34;100.00;98038.44;4964500;28;102040;-70
2023/04/02 10:14:23;;;;;;;;;11.25;8.00;;;;;3.45;100.00;98054.13;4957522;28;102150;-70
2023/04/02 10:17:04;;;;;;;;;14.00;11.75;;;;;3.30;100.00;98063.81;4946062;28;105115;-67
2023/04/02 10:19:37;;;;;;;;;11.00;10.25;;;;;3.36;100.00;98065.81;4938246;28;102687;-70
2023/04/02 10:22:15;;;;;;;;;14.00;13.00;;;;;3.28;100.00;98055.16;4943769;28;102408;-71
2023/04/02 10:24:42;;;;;;;;;14.75;12.00;;;;;3.26;100.00;98075.84;4953097;28;102493;-70
2023/04/02 10:27:25;;;;;;;;;17.75;17.25;;;;;3.16;100.00;98075.16;4949929;28;102518;-70
2023/04/02 10:30:01;;;;;;;;;18.25;17.50;;;;;3.17;100.00;98084.84;4918720;28;102205;-69
2023/04/02 10:32:41;;;;;;;;;30.50;24.50;;;;;3.20;100.00;98081.84;4935949;28;102044;-68
2023/04/02 10:35:29;;;;;;;;;27.75;24.25;;;;;3.29;100.00;98083.50;4960360;28;104182;-69
2023/04/02 10:37:59;;;;;;;;;30.50;25.50;;;;;3.20;100.00;98089.84;4943220;28;108640;-69
2023/04/02 10:40:33;;;;;;;;;31.00;27.75;;;;;3.20;100.00;98095.19;4942955;28;104351;-70
2023/04/02 10:43:43;;;;;;;;;31.25;25.00;;;;;3.19;100.00;98098.91;4953143;28;102452;-69
2023/04/02 10:46:33;;;;;;;;;24.00;16.25;;;;;3.18;100.00;98107.91;4937193;28;102501;-70
2023/04/02 10:49:20;;;;;;;;;26.75;23.00;;;;;3.18;100.00;98110.56;4936151;28;107369;-70
2023/04/02 10:52:02;;;;;;;;;29.25;21.00;;;;;3.12;100.00;98108.56;4947362;28;102508;-69
2023/04/02 10:54:46;;;;;;;;;24.75;16.00;;;;;3.23;100.00;98110.06;4929276;28;103141;-71
2023/04/02 10:57:28;;;;;;;;;20.75;20.00;;;;;3.29;100.00;98126.25;4949908;28;102533;-70
2023/04/02 13:01:30;;;;;;;;;27.25;23.75;;;;;3.43;100.00;98239.66;4641184;28;105256;-70
2023/04/02 13:04:18;;;;;;;;;28.00;22.00;;;;;3.62;100.00;98250.06;4810998;28;101987;-70
2023/04/02 13:06:51;;;;;;;;;36.00;32.50;;;;;3.65;100.00;98252.38;4824115;28;102283;-70
2023/04/02 13:09:49;;;;;;;;;27.75;23.75;;;;;3.57;100.00;98250.53;4800614;28;108596;-70
2023/04/02 13:12:38;;;;;;;;;34.50;28.00;;;;;3.57;100.00;98258.56;4820889;28;102188;-72
2023/04/02 13:15:18;;;;;;;;;31.25;28.25;;;;;3.63;100.00;98256.25;4815946;28;102549;-70
2023/04/02 13:18:00;;;;;;;;;26.75;22.75;;;;;3.43;98.82;98256.53;4819850;28;102428;-70
2023/04/02 13:20:30;;;;;;;;;26.25;23.75;;;;;3.45;100.00;98259.06;4823510;28;108660;-70
2023/04/02 13:22:59;;;;;;;;;21.25;15.25;;;;;3.46;99.73;98261.56;4823837;28;102597;-70
2023/04/02 13:25:34;;;;;;;;;24.25;17.00;;;;;3.45;100.00;98249.22;4816621;28;102320;-70
2023/04/02 13:28:01;;;;;;;;;21.75;19.00;;;;;3.57;100.00;98269.25;4816499;29;102543;-70
2023/04/02 13:30:28;;;;;;;;;26.00;23.75;;;;;3.41;99.78;98263.91;4818785;29;103478;-70
2023/04/02 13:32:55;;;;;;;;;28.00;25.00;;;;;3.30;100.00;98266.88;4836491;28;102091;-69
2023/04/02 13:35:22;;;;;;;;;28.25;23.50;;;;;3.40;100.00;98278.25;4823848;28;102436;-71
2023/04/02 13:37:50;;;;;;;;;33.25;25.75;;;;;3.41;100.00;98279.94;4840384;28;103245;-70
2023/04/02 13:40:18;;;;;;;;;30.25;26.50;;;;;3.43;100.00;98283.25;4806866;28;104888;-70
2023/04/02 13:42:46;;;;;;;;;29.50;24.25;;;;;3.37;100.00;98267.91;4826532;28;102202;-70
2023/04/02 13:45:32;;;;;;;;;28.50;26.00;;;;;3.43;100.00;98277.91;4818991;28;102099;-71
2023/04/02 13:48:02;;;;;;;;;43.25;32.50;;;;;3.35;100.00;98280.56;4819101;28;102384;-71
2023/04/02 13:50:31;;;;;;;;;36.75;32.50;;;;;3.29;100.00;98297.25;4815595;28;104098;-71
2023/04/02 13:53:04;;;;;;;;;42.75;27.75;;;;;3.23;100.00;98289.91;4818692;28;102168;-70
2023/04/02 13:55:38;;;;;;;;;30.00;24.00;;;;;3.18;100.00;98275.34;4818649;28;103092;-72
2023/04/02 13:58:06;;;;;;;;;35.75;26.00;;;;;3.35;100.00;98299.28;4817117;28;102594;-71
2023/04/02 14:00:36;;;;;;;;;31.00;23.50;;;;;3.44;100.00;98295.63;4836613;28;104056;-71
2023/04/02 14:03:20;;;;;;;;;34.50;28.25;;;;;3.17;100.00;98293.22;4820218;28;102248;-72